sensor_id;sensor_type;location;lat;lon;timestamp;P1;durP1;ratioP1;P2;durP2;ratioP2
12356;SDS011;6243;51.244;6.774;2022-09-13T00:00:04;6.13;;;4.10;;
12356;SDS011;6243;51.244;6.774;2022-09-13T00:02:31;5.97;;;4.37;;
12356;SDS011;6243;51.244;6.774;2022-09-13T00:04:57;6.33;;;4.17;;
12356;SDS011;6243;51.244;6.774;2022-09-13T00:07:22;5.27;;;4.30;;
12356;SDS011;6243;51.244;6.774;2022-09-13T00:09:48;5.47;;;4.47;;
12356;SDS011;6243;51.244;6.774;2022-09-13T00:12:15;5.23;;;4.17;;
12356;SDS011;6243;51.244;6.774;2022-09-13T00:14:40;5.03;;;3.97;;
12356;SDS011;6243;51.244;6.774;2022-09-13T00:17:06;5.07;;;4.00;;
12356;SDS011;6243;51.244;6.774;2022-09-13T00:19:32;6.57;;;4.60;;
12356;SDS011;6243;51.244;6.774;2022-09-13T00:21:57;5.73;;;4.33;;
12356;SDS011;6243;51.244;6.774;2022-09-13T00:24:23;5.17;;;4.03;;
12356;SDS011;6243;51.244;6.774;2022-09-13T00:26:49;4.47;;;3.90;;
12356;SDS011;6243;51.244;6.774;2022-09-13T00:29:16;7.80;;;4.00;;
12356;SDS011;6243;51.244;6.774;2022-09-13T00:31:41;5.50;;;4.00;;
12356;SDS011;6243;51.244;6.774;2022-09-13T00:34:07;4.40;;;4.00;;
12356;SDS011;6243;51.244;6.774;2022-09-13T00:36:32;4.60;;;4.10;;
12356;SDS011;6243;51.244;6.774;2022-09-13T00:38:58;5.73;;;4.10;;
12356;SDS011;6243;51.244;6.774;2022-09-13T00:41:24;4.67;;;4.20;;
12356;SDS011;6243;51.244;6.774;2022-09-13T00:43:50;5.37;;;4.20;;
12356;SDS011;6243;51.244;6.774;2022-09-13T00:46:21;6.43;;;4.40;;
12356;SDS011;6243;51.244;6.774;2022-09-13T00:48:52;4.20;;;3.80;;
12356;SDS011;6243;51.244;6.774;2022-09-13T00:51:23;4.60;;;4.17;;
12356;SDS011;6243;51.244;6.774;2022-09-13T00:53:50;4.80;;;4.23;;
12356;SDS011;6243;51.244;6.774;2022-09-13T00:56:18;4.87;;;4.27;;
12356;SDS011;6243;51.244;6.774;2022-09-13T00:58:49;5.10;;;3.93;;
12356;SDS011;6243;51.244;6.774;2022-09-13T01:01:22;5.93;;;3.97;;
12356;SDS011;6243;51.244;6.774;2022-09-13T01:03:53;7.17;;;4.53;;
12356;SDS011;6243;51.244;6.774;2022-09-13T01:06:20;4.30;;;3.87;;
12356;SDS011;6243;51.244;6.774;2022-09-13T01:08:49;4.60;;;4.10;;
12356;SDS011;6243;51.244;6.774;2022-09-13T01:11:18;4.17;;;3.73;;
12356;SDS011;6243;51.244;6.774;2022-09-13T01:13:50;6.00;;;4.17;;
12356;SDS011;6243;51.244;6.774;2022-09-13T01:16:15;6.40;;;4.30;;
12356;SDS011;6243;51.244;6.774;2022-09-13T01:18:43;6.53;;;4.40;;
12356;SDS011;6243;51.244;6.774;2022-09-13T01:21:17;7.70;;;4.10;;
12356;SDS011;6243;51.244;6.774;2022-09-13T01:24:08;3.77;;;3.37;;
12356;SDS011;6243;51.244;6.774;2022-09-13T01:27:02;5.57;;;4.07;;
12356;SDS011;6243;51.244;6.774;2022-09-13T01:32:32;7.23;;;4.60;;
12356;SDS011;6243;51.244;6.774;2022-09-13T01:35:08;6.73;;;4.67;;
12356;SDS011;6243;51.244;6.774;2022-09-13T01:37:50;6.30;;;4.93;;
12356;SDS011;6243;51.244;6.774;2022-09-13T01:40:23;5.00;;;4.50;;
12356;SDS011;6243;51.244;6.774;2022-09-13T01:43:05;6.27;;;4.77;;
12356;SDS011;6243;51.244;6.774;2022-09-13T01:45:46;9.20;;;5.10;;
12356;SDS011;6243;51.244;6.774;2022-09-13T01:48:20;6.03;;;4.40;;
12356;SDS011;6243;51.244;6.774;2022-09-13T01:50:58;5.07;;;4.57;;
12356;SDS011;6243;51.244;6.774;2022-09-13T01:53:30;6.20;;;4.50;;
12356;SDS011;6243;51.244;6.774;2022-09-13T01:56:02;5.10;;;4.60;;
12356;SDS011;6243;51.244;6.774;2022-09-13T01:58:30;6.13;;;4.50;;
12356;SDS011;6243;51.244;6.774;2022-09-13T02:01:05;4.67;;;4.00;;
12356;SDS011;6243;51.244;6.774;2022-09-13T02:03:35;5.23;;;4.10;;
12356;SDS011;6243;51.244;6.774;2022-09-13T02:06:07;5.73;;;4.33;;
12356;SDS011;6243;51.244;6.774;2022-09-13T02:08:37;5.57;;;4.23;;
12356;SDS011;6243;51.244;6.774;2022-09-13T02:11:07;5.23;;;4.57;;
12356;SDS011;6243;51.244;6.774;2022-09-13T02:13:35;5.77;;;4.37;;
12356;SDS011;6243;51.244;6.774;2022-09-13T02:16:07;7.37;;;4.77;;
12356;SDS011;6243;51.244;6.774;2022-09-13T02:18:38;5.07;;;4.20;;
12356;SDS011;6243;51.244;6.774;2022-09-13T02:21:06;8.47;;;4.40;;
12356;SDS011;6243;51.244;6.774;2022-09-13T02:23:36;5.13;;;4.50;;
12356;SDS011;6243;51.244;6.774;2022-09-13T02:26:06;5.77;;;4.30;;
12356;SDS011;6243;51.244;6.774;2022-09-13T02:28:36;5.53;;;4.50;;
12356;SDS011;6243;51.244;6.774;2022-09-13T02:31:07;5.77;;;4.50;;
12356;SDS011;6243;51.244;6.774;2022-09-13T02:33:34;4.77;;;4.10;;
12356;SDS011;6243;51.244;6.774;2022-09-13T02:36:02;5.03;;;4.03;;
12356;SDS011;6243;51.244;6.774;2022-09-13T02:38:33;5.43;;;4.37;;
12356;SDS011;6243;51.244;6.774;2022-09-13T02:41:05;7.37;;;4.73;;
12356;SDS011;6243;51.244;6.774;2022-09-13T02:43:38;6.23;;;4.20;;
12356;SDS011;6243;51.244;6.774;2022-09-13T02:46:11;4.73;;;4.23;;
12356;SDS011;6243;51.244;6.774;2022-09-13T02:48:47;4.17;;;3.77;;
12356;SDS011;6243;51.244;6.774;2022-09-13T02:51:23;6.07;;;4.60;;
12356;SDS011;6243;51.244;6.774;2022-09-13T02:53:54;6.90;;;4.17;;
12356;SDS011;6243;51.244;6.774;2022-09-13T02:56:31;6.33;;;4.17;;
12356;SDS011;6243;51.244;6.774;2022-09-13T02:59:04;7.63;;;4.37;;
12356;SDS011;6243;51.244;6.774;2022-09-13T03:01:39;5.83;;;4.30;;
12356;SDS011;6243;51.244;6.774;2022-09-13T03:04:09;4.93;;;4.37;;
12356;SDS011;6243;51.244;6.774;2022-09-13T03:06:34;5.20;;;4.37;;
12356;SDS011;6243;51.244;6.774;2022-09-13T03:09:02;5.10;;;4.57;;
12356;SDS011;6243;51.244;6.774;2022-09-13T03:11:31;4.83;;;4.30;;
12356;SDS011;6243;51.244;6.774;2022-09-13T03:14:13;6.53;;;4.70;;
12356;SDS011;6243;51.244;6.774;2022-09-13T03:16:53;7.50;;;4.53;;
12356;SDS011;6243;51.244;6.774;2022-09-13T03:19:35;5.43;;;4.63;;
12356;SDS011;6243;51.244;6.774;2022-09-13T03:22:15;6.60;;;4.57;;
12356;SDS011;6243;51.244;6.774;2022-09-13T03:24:54;6.87;;;4.80;;
12356;SDS011;6243;51.244;6.774;2022-09-13T03:27:28;5.20;;;4.67;;
12356;SDS011;6243;51.244;6.774;2022-09-13T03:30:01;5.20;;;4.70;;
12356;SDS011;6243;51.244;6.774;2022-09-13T03:32:32;4.67;;;4.00;;
12356;SDS011;6243;51.244;6.774;2022-09-13T03:35:06;6.83;;;5.23;;
12356;SDS011;6243;51.244;6.774;2022-09-13T03:37:43;4.87;;;4.37;;
12356;SDS011;6243;51.244;6.774;2022-09-13T03:40:18;5.53;;;4.70;;
12356;SDS011;6243;51.244;6.774;2022-09-13T03:42:51;5.73;;;4.50;;
12356;SDS011;6243;51.244;6.774;2022-09-13T03:45:20;5.77;;;5.00;;
12356;SDS011;6243;51.244;6.774;2022-09-13T03:47:50;7.17;;;4.53;;
12356;SDS011;6243;51.244;6.774;2022-09-13T03:50:18;6.47;;;4.80;;
12356;SDS011;6243;51.244;6.774;2022-09-13T03:52:46;4.83;;;4.07;;
12356;SDS011;6243;51.244;6.774;2022-09-13T03:55:16;5.50;;;4.50;;
12356;SDS011;6243;51.244;6.774;2022-09-13T03:57:43;6.93;;;4.60;;
12356;SDS011;6243;51.244;6.774;2022-09-13T04:00:11;5.70;;;4.87;;
12356;SDS011;6243;51.244;6.774;2022-09-13T04:02:37;5.63;;;4.47;;
12356;SDS011;6243;51.244;6.774;2022-09-13T04:05:05;5.20;;;4.67;;
12356;SDS011;6243;51.244;6.774;2022-09-13T04:07:30;5.73;;;4.27;;
12356;SDS011;6243;51.244;6.774;2022-09-13T04:09:56;7.60;;;5.13;;
12356;SDS011;6243;51.244;6.774;2022-09-13T04:12:22;6.70;;;4.83;;
12356;SDS011;6243;51.244;6.774;2022-09-13T04:14:47;5.77;;;4.70;;
12356;SDS011;6243;51.244;6.774;2022-09-13T04:17:13;5.60;;;4.40;;
12356;SDS011;6243;51.244;6.774;2022-09-13T04:19:40;4.87;;;4.47;;
12356;SDS011;6243;51.244;6.774;2022-09-13T04:22:07;5.33;;;4.83;;
12356;SDS011;6243;51.244;6.774;2022-09-13T04:24:32;5.20;;;4.70;;
12356;SDS011;6243;51.244;6.774;2022-09-13T04:26:58;5.73;;;4.57;;
12356;SDS011;6243;51.244;6.774;2022-09-13T04:29:25;5.73;;;4.87;;
12356;SDS011;6243;51.244;6.774;2022-09-13T04:31:51;6.13;;;5.47;;
12356;SDS011;6243;51.244;6.774;2022-09-13T04:34:18;5.13;;;4.70;;
12356;SDS011;6243;51.244;6.774;2022-09-13T04:36:44;5.77;;;5.20;;
12356;SDS011;6243;51.244;6.774;2022-09-13T04:39:11;7.70;;;5.50;;
12356;SDS011;6243;51.244;6.774;2022-09-13T04:41:36;5.73;;;5.13;;
12356;SDS011;6243;51.244;6.774;2022-09-13T04:44:02;5.77;;;5.27;;
12356;SDS011;6243;51.244;6.774;2022-09-13T04:46:28;8.43;;;5.37;;
12356;SDS011;6243;51.244;6.774;2022-09-13T04:48:53;6.20;;;5.03;;
12356;SDS011;6243;51.244;6.774;2022-09-13T04:51:19;6.90;;;5.40;;
12356;SDS011;6243;51.244;6.774;2022-09-13T04:53:45;6.57;;;5.37;;
12356;SDS011;6243;51.244;6.774;2022-09-13T04:56:12;6.90;;;5.67;;
12356;SDS011;6243;51.244;6.774;2022-09-13T04:58:37;6.23;;;5.63;;
12356;SDS011;6243;51.244;6.774;2022-09-13T05:01:04;7.23;;;5.57;;
12356;SDS011;6243;51.244;6.774;2022-09-13T05:03:31;7.60;;;5.73;;
12356;SDS011;6243;51.244;6.774;2022-09-13T05:06:00;7.50;;;6.17;;
12356;SDS011;6243;51.244;6.774;2022-09-13T05:08:26;6.97;;;5.90;;
12356;SDS011;6243;51.244;6.774;2022-09-13T05:10:52;6.47;;;5.90;;
12356;SDS011;6243;51.244;6.774;2022-09-13T05:13:19;7.60;;;6.00;;
12356;SDS011;6243;51.244;6.774;2022-09-13T05:15:44;8.10;;;6.13;;
12356;SDS011;6243;51.244;6.774;2022-09-13T05:18:10;10.03;;;6.40;;
12356;SDS011;6243;51.244;6.774;2022-09-13T05:20:36;6.60;;;6.00;;
12356;SDS011;6243;51.244;6.774;2022-09-13T05:23:02;7.07;;;5.43;;
12356;SDS011;6243;51.244;6.774;2022-09-13T05:25:27;7.30;;;6.03;;
12356;SDS011;6243;51.244;6.774;2022-09-13T05:27:53;7.80;;;5.67;;
12356;SDS011;6243;51.244;6.774;2022-09-13T05:30:20;6.93;;;6.00;;
12356;SDS011;6243;51.244;6.774;2022-09-13T05:32:46;6.50;;;5.77;;
12356;SDS011;6243;51.244;6.774;2022-09-13T05:35:12;5.90;;;5.30;;
12356;SDS011;6243;51.244;6.774;2022-09-13T05:37:37;5.97;;;5.37;;
12356;SDS011;6243;51.244;6.774;2022-09-13T05:40:03;7.50;;;5.90;;
12356;SDS011;6243;51.244;6.774;2022-09-13T05:42:30;6.70;;;5.57;;
12356;SDS011;6243;51.244;6.774;2022-09-13T05:44:55;9.17;;;6.33;;
12356;SDS011;6243;51.244;6.774;2022-09-13T05:47:22;7.97;;;6.33;;
12356;SDS011;6243;51.244;6.774;2022-09-13T05:49:48;6.23;;;5.53;;
12356;SDS011;6243;51.244;6.774;2022-09-13T05:52:13;7.37;;;5.57;;
12356;SDS011;6243;51.244;6.774;2022-09-13T05:54:39;7.80;;;5.40;;
12356;SDS011;6243;51.244;6.774;2022-09-13T05:57:04;6.60;;;5.97;;
12356;SDS011;6243;51.244;6.774;2022-09-13T05:59:30;9.97;;;6.57;;
12356;SDS011;6243;51.244;6.774;2022-09-13T06:01:55;8.40;;;6.50;;
12356;SDS011;6243;51.244;6.774;2022-09-13T06:04:22;7.13;;;6.40;;
12356;SDS011;6243;51.244;6.774;2022-09-13T06:06:48;8.07;;;6.40;;
12356;SDS011;6243;51.244;6.774;2022-09-13T06:09:14;7.63;;;6.37;;
12356;SDS011;6243;51.244;6.774;2022-09-13T06:11:40;10.30;;;6.70;;
12356;SDS011;6243;51.244;6.774;2022-09-13T06:14:05;8.17;;;6.43;;
12356;SDS011;6243;51.244;6.774;2022-09-13T06:16:31;7.83;;;7.03;;
12356;SDS011;6243;51.244;6.774;2022-09-13T06:18:57;10.53;;;6.67;;
12356;SDS011;6243;51.244;6.774;2022-09-13T06:21:24;10.13;;;7.10;;
12356;SDS011;6243;51.244;6.774;2022-09-13T06:23:49;17.10;;;8.17;;
12356;SDS011;6243;51.244;6.774;2022-09-13T06:26:16;16.90;;;7.30;;
12356;SDS011;6243;51.244;6.774;2022-09-13T06:28:46;8.07;;;7.00;;
12356;SDS011;6243;51.244;6.774;2022-09-13T06:31:12;12.50;;;7.53;;
12356;SDS011;6243;51.244;6.774;2022-09-13T06:33:39;8.43;;;6.70;;
12356;SDS011;6243;51.244;6.774;2022-09-13T06:36:07;9.50;;;7.23;;
12356;SDS011;6243;51.244;6.774;2022-09-13T06:38:37;49.27;;;13.50;;
12356;SDS011;6243;51.244;6.774;2022-09-13T06:41:04;12.30;;;8.07;;
12356;SDS011;6243;51.244;6.774;2022-09-13T06:43:31;10.53;;;7.33;;
12356;SDS011;6243;51.244;6.774;2022-09-13T06:46:00;8.20;;;6.40;;
12356;SDS011;6243;51.244;6.774;2022-09-13T06:48:26;10.47;;;6.60;;
12356;SDS011;6243;51.244;6.774;2022-09-13T06:50:56;11.27;;;6.57;;
12356;SDS011;6243;51.244;6.774;2022-09-13T06:53:22;6.60;;;5.90;;
12356;SDS011;6243;51.244;6.774;2022-09-13T06:55:53;11.67;;;6.13;;
12356;SDS011;6243;51.244;6.774;2022-09-13T06:58:24;8.97;;;5.80;;
12356;SDS011;6243;51.244;6.774;2022-09-13T07:00:50;9.13;;;6.37;;
12356;SDS011;6243;51.244;6.774;2022-09-13T07:03:15;7.77;;;6.40;;
12356;SDS011;6243;51.244;6.774;2022-09-13T07:05:41;6.87;;;5.77;;
12356;SDS011;6243;51.244;6.774;2022-09-13T07:08:07;9.50;;;6.70;;
12356;SDS011;6243;51.244;6.774;2022-09-13T07:10:32;7.07;;;5.27;;
12356;SDS011;6243;51.244;6.774;2022-09-13T07:12:59;10.20;;;5.57;;
12356;SDS011;6243;51.244;6.774;2022-09-13T07:15:25;6.13;;;5.20;;
12356;SDS011;6243;51.244;6.774;2022-09-13T07:17:50;7.43;;;5.30;;
12356;SDS011;6243;51.244;6.774;2022-09-13T07:20:16;7.00;;;5.57;;
12356;SDS011;6243;51.244;6.774;2022-09-13T07:22:41;12.60;;;5.60;;
12356;SDS011;6243;51.244;6.774;2022-09-13T07:25:07;7.87;;;5.17;;
12356;SDS011;6243;51.244;6.774;2022-09-13T07:27:33;7.37;;;5.13;;
12356;SDS011;6243;51.244;6.774;2022-09-13T07:30:00;6.30;;;5.40;;
12356;SDS011;6243;51.244;6.774;2022-09-13T07:32:25;8.13;;;5.10;;
12356;SDS011;6243;51.244;6.774;2022-09-13T07:34:51;8.83;;;5.23;;
12356;SDS011;6243;51.244;6.774;2022-09-13T07:37:17;9.60;;;5.07;;
12356;SDS011;6243;51.244;6.774;2022-09-13T07:39:43;7.77;;;4.80;;
12356;SDS011;6243;51.244;6.774;2022-09-13T07:42:08;5.97;;;4.90;;
12356;SDS011;6243;51.244;6.774;2022-09-13T07:44:34;11.83;;;5.57;;
12356;SDS011;6243;51.244;6.774;2022-09-13T07:47:01;8.23;;;5.37;;
12356;SDS011;6243;51.244;6.774;2022-09-13T07:49:27;8.73;;;5.00;;
12356;SDS011;6243;51.244;6.774;2022-09-13T07:51:53;5.43;;;4.70;;
12356;SDS011;6243;51.244;6.774;2022-09-13T07:54:18;8.47;;;4.80;;
12356;SDS011;6243;51.244;6.774;2022-09-13T07:56:44;6.87;;;5.00;;
12356;SDS011;6243;51.244;6.774;2022-09-13T07:59:11;6.87;;;4.90;;
12356;SDS011;6243;51.244;6.774;2022-09-13T08:01:38;7.60;;;4.87;;
12356;SDS011;6243;51.244;6.774;2022-09-13T08:04:06;7.07;;;4.60;;
12356;SDS011;6243;51.244;6.774;2022-09-13T08:06:33;19.00;;;5.77;;
12356;SDS011;6243;51.244;6.774;2022-09-13T08:08:59;21.57;;;6.63;;
12356;SDS011;6243;51.244;6.774;2022-09-13T08:11:26;14.47;;;6.10;;
12356;SDS011;6243;51.244;6.774;2022-09-13T08:13:54;9.37;;;5.40;;
12356;SDS011;6243;51.244;6.774;2022-09-13T08:16:20;16.00;;;7.00;;
12356;SDS011;6243;51.244;6.774;2022-09-13T08:18:48;29.20;;;8.83;;
12356;SDS011;6243;51.244;6.774;2022-09-13T08:21:16;15.17;;;6.60;;
12356;SDS011;6243;51.244;6.774;2022-09-13T08:23:42;15.83;;;6.37;;
12356;SDS011;6243;51.244;6.774;2022-09-13T08:26:09;13.43;;;6.03;;
12356;SDS011;6243;51.244;6.774;2022-09-13T08:28:35;7.67;;;5.20;;
12356;SDS011;6243;51.244;6.774;2022-09-13T08:31:02;6.87;;;4.73;;
12356;SDS011;6243;51.244;6.774;2022-09-13T08:33:28;4.77;;;4.23;;
12356;SDS011;6243;51.244;6.774;2022-09-13T08:35:54;6.73;;;5.07;;
12356;SDS011;6243;51.244;6.774;2022-09-13T08:38:22;7.03;;;4.57;;
12356;SDS011;6243;51.244;6.774;2022-09-13T08:40:48;4.30;;;3.67;;
12356;SDS011;6243;51.244;6.774;2022-09-13T08:43:19;4.30;;;3.13;;
12356;SDS011;6243;51.244;6.774;2022-09-13T08:45:54;3.57;;;3.27;;
12356;SDS011;6243;51.244;6.774;2022-09-13T08:48:26;4.23;;;3.50;;
12356;SDS011;6243;51.244;6.774;2022-09-13T08:50:58;6.90;;;3.27;;
12356;SDS011;6243;51.244;6.774;2022-09-13T08:53:29;6.00;;;3.60;;
12356;SDS011;6243;51.244;6.774;2022-09-13T08:55:57;4.33;;;3.70;;
12356;SDS011;6243;51.244;6.774;2022-09-13T08:58:30;4.10;;;3.13;;
12356;SDS011;6243;51.244;6.774;2022-09-13T09:01:05;4.10;;;3.40;;
12356;SDS011;6243;51.244;6.774;2022-09-13T09:03:35;6.33;;;3.30;;
12356;SDS011;6243;51.244;6.774;2022-09-13T09:06:07;3.50;;;3.20;;
12356;SDS011;6243;51.244;6.774;2022-09-13T09:08:40;4.27;;;3.70;;
12356;SDS011;6243;51.244;6.774;2022-09-13T09:11:17;5.83;;;3.90;;
12356;SDS011;6243;51.244;6.774;2022-09-13T09:13:51;4.77;;;3.77;;
12356;SDS011;6243;51.244;6.774;2022-09-13T09:16:24;4.60;;;3.63;;
12356;SDS011;6243;51.244;6.774;2022-09-13T09:18:56;4.43;;;3.43;;
12356;SDS011;6243;51.244;6.774;2022-09-13T09:21:31;7.47;;;3.90;;
12356;SDS011;6243;51.244;6.774;2022-09-13T09:23:58;4.47;;;4.07;;
12356;SDS011;6243;51.244;6.774;2022-09-13T09:26:28;3.60;;;3.30;;
12356;SDS011;6243;51.244;6.774;2022-09-13T09:28:55;4.33;;;3.60;;
12356;SDS011;6243;51.244;6.774;2022-09-13T09:31:25;4.80;;;4.40;;
12356;SDS011;6243;51.244;6.774;2022-09-13T09:34:01;5.03;;;4.23;;
12356;SDS011;6243;51.244;6.774;2022-09-13T09:36:36;4.77;;;4.03;;
12356;SDS011;6243;51.244;6.774;2022-09-13T09:39:06;3.90;;;3.50;;
12356;SDS011;6243;51.244;6.774;2022-09-13T09:41:35;6.13;;;4.40;;
12356;SDS011;6243;51.244;6.774;2022-09-13T09:44:03;4.73;;;3.77;;
12356;SDS011;6243;51.244;6.774;2022-09-13T09:46:37;4.37;;;3.40;;
12356;SDS011;6243;51.244;6.774;2022-09-13T09:49:06;4.03;;;3.63;;
12356;SDS011;6243;51.244;6.774;2022-09-13T09:51:39;4.17;;;3.33;;
12356;SDS011;6243;51.244;6.774;2022-09-13T09:54:06;4.20;;;3.50;;
12356;SDS011;6243;51.244;6.774;2022-09-13T09:56:33;4.70;;;3.70;;
12356;SDS011;6243;51.244;6.774;2022-09-13T09:58:58;4.70;;;3.50;;
12356;SDS011;6243;51.244;6.774;2022-09-13T10:01:25;4.47;;;3.83;;
12356;SDS011;6243;51.244;6.774;2022-09-13T10:03:56;7.03;;;3.70;;
12356;SDS011;6243;51.244;6.774;2022-09-13T10:06:30;5.00;;;3.87;;
12356;SDS011;6243;51.244;6.774;2022-09-13T10:08:57;3.90;;;3.50;;
12356;SDS011;6243;51.244;6.774;2022-09-13T10:11:38;7.03;;;4.00;;
12356;SDS011;6243;51.244;6.774;2022-09-13T10:14:08;5.83;;;4.10;;
12356;SDS011;6243;51.244;6.774;2022-09-13T10:17:00;5.73;;;5.10;;
12356;SDS011;6243;51.244;6.774;2022-09-13T10:19:27;6.23;;;5.43;;
12356;SDS011;6243;51.244;6.774;2022-09-13T10:22:02;5.77;;;4.97;;
12356;SDS011;6243;51.244;6.774;2022-09-13T10:24:29;5.83;;;4.37;;
12356;SDS011;6243;51.244;6.774;2022-09-13T10:26:56;4.27;;;3.87;;
12356;SDS011;6243;51.244;6.774;2022-09-13T10:29:22;5.03;;;4.50;;
12356;SDS011;6243;51.244;6.774;2022-09-13T10:31:50;4.83;;;3.70;;
12356;SDS011;6243;51.244;6.774;2022-09-13T10:34:17;5.63;;;4.77;;
12356;SDS011;6243;51.244;6.774;2022-09-13T10:36:48;4.53;;;3.90;;
12356;SDS011;6243;51.244;6.774;2022-09-13T10:39:18;4.07;;;3.67;;
12356;SDS011;6243;51.244;6.774;2022-09-13T10:41:48;4.77;;;3.50;;
12356;SDS011;6243;51.244;6.774;2022-09-13T10:44:23;3.20;;;2.90;;
12356;SDS011;6243;51.244;6.774;2022-09-13T10:46:52;3.40;;;3.10;;
12356;SDS011;6243;51.244;6.774;2022-09-13T10:49:34;3.47;;;3.17;;
12356;SDS011;6243;51.244;6.774;2022-09-13T10:54:51;6.63;;;3.30;;
12356;SDS011;6243;51.244;6.774;2022-09-13T10:57:32;3.77;;;3.37;;
12356;SDS011;6243;51.244;6.774;2022-09-13T11:00:03;5.07;;;3.50;;
12356;SDS011;6243;51.244;6.774;2022-09-13T11:05:24;4.73;;;3.60;;
12356;SDS011;6243;51.244;6.774;2022-09-13T11:10:57;3.60;;;3.30;;
12356;SDS011;6243;51.244;6.774;2022-09-13T11:13:37;4.57;;;3.30;;
12356;SDS011;6243;51.244;6.774;2022-09-13T11:16:16;3.57;;;2.90;;
12356;SDS011;6243;51.244;6.774;2022-09-13T11:18:58;3.57;;;3.27;;
12356;SDS011;6243;51.244;6.774;2022-09-13T11:21:34;3.40;;;2.70;;
12356;SDS011;6243;51.244;6.774;2022-09-13T11:24:14;4.13;;;3.40;;
12356;SDS011;6243;51.244;6.774;2022-09-13T11:27:03;3.90;;;2.73;;
12356;SDS011;6243;51.244;6.774;2022-09-13T11:29:42;4.37;;;3.57;;
12356;SDS011;6243;51.244;6.774;2022-09-13T11:32:25;5.00;;;3.13;;
12356;SDS011;6243;51.244;6.774;2022-09-13T11:35:06;4.33;;;2.80;;
12356;SDS011;6243;51.244;6.774;2022-09-13T11:37:48;5.00;;;3.20;;
12356;SDS011;6243;51.244;6.774;2022-09-13T11:40:23;4.03;;;2.87;;
12356;SDS011;6243;51.244;6.774;2022-09-13T11:43:02;4.70;;;3.60;;
12356;SDS011;6243;51.244;6.774;2022-09-13T11:45:37;4.20;;;3.90;;
12356;SDS011;6243;51.244;6.774;2022-09-13T11:48:23;5.43;;;3.73;;
12356;SDS011;6243;51.244;6.774;2022-09-13T11:51:01;4.27;;;3.77;;
12356;SDS011;6243;51.244;6.774;2022-09-13T11:53:36;4.87;;;4.33;;
12356;SDS011;6243;51.244;6.774;2022-09-13T11:56:11;5.50;;;4.73;;
12356;SDS011;6243;51.244;6.774;2022-09-13T11:58:43;5.53;;;3.70;;
12356;SDS011;6243;51.244;6.774;2022-09-13T12:01:15;5.47;;;4.20;;
12356;SDS011;6243;51.244;6.774;2022-09-13T12:03:47;3.23;;;3.03;;
12356;SDS011;6243;51.244;6.774;2022-09-13T12:06:18;5.13;;;3.27;;
12356;SDS011;6243;51.244;6.774;2022-09-13T12:08:46;5.00;;;4.50;;
12356;SDS011;6243;51.244;6.774;2022-09-13T12:11:16;4.23;;;3.40;;
12356;SDS011;6243;51.244;6.774;2022-09-13T12:13:47;3.77;;;3.20;;
12356;SDS011;6243;51.244;6.774;2022-09-13T12:16:17;5.97;;;4.40;;
12356;SDS011;6243;51.244;6.774;2022-09-13T12:18:48;6.03;;;4.70;;
12356;SDS011;6243;51.244;6.774;2022-09-13T12:21:18;4.30;;;3.80;;
12356;SDS011;6243;51.244;6.774;2022-09-13T12:23:46;4.50;;;4.10;;
12356;SDS011;6243;51.244;6.774;2022-09-13T12:26:19;3.80;;;3.50;;
12356;SDS011;6243;51.244;6.774;2022-09-13T12:28:49;5.07;;;3.33;;
12356;SDS011;6243;51.244;6.774;2022-09-13T12:31:19;4.50;;;4.07;;
12356;SDS011;6243;51.244;6.774;2022-09-13T12:33:48;6.60;;;4.27;;
12356;SDS011;6243;51.244;6.774;2022-09-13T12:36:23;4.77;;;4.27;;
12356;SDS011;6243;51.244;6.774;2022-09-13T12:39:13;4.30;;;3.90;;
12356;SDS011;6243;51.244;6.774;2022-09-13T12:41:53;4.10;;;3.70;;
12356;SDS011;6243;51.244;6.774;2022-09-13T12:44:40;7.40;;;4.10;;
12356;SDS011;6243;51.244;6.774;2022-09-13T12:50:34;3.97;;;2.90;;
12356;SDS011;6243;51.244;6.774;2022-09-13T12:53:11;4.30;;;2.67;;
12356;SDS011;6243;51.244;6.774;2022-09-13T12:55:59;3.87;;;3.00;;
12356;SDS011;6243;51.244;6.774;2022-09-13T12:58:34;5.17;;;2.80;;
12356;SDS011;6243;51.244;6.774;2022-09-13T13:01:16;3.23;;;2.60;;
12356;SDS011;6243;51.244;6.774;2022-09-13T13:03:47;3.83;;;2.50;;
12356;SDS011;6243;51.244;6.774;2022-09-13T13:06:23;2.60;;;2.40;;
12356;SDS011;6243;51.244;6.774;2022-09-13T13:08:55;2.33;;;2.10;;
12356;SDS011;6243;51.244;6.774;2022-09-13T13:11:25;2.30;;;2.10;;
12356;SDS011;6243;51.244;6.774;2022-09-13T13:13:52;5.73;;;2.30;;
12356;SDS011;6243;51.244;6.774;2022-09-13T13:16:22;2.80;;;2.50;;
12356;SDS011;6243;51.244;6.774;2022-09-13T13:18:51;3.80;;;2.60;;
12356;SDS011;6243;51.244;6.774;2022-09-13T13:21:23;2.73;;;2.20;;
12356;SDS011;6243;51.244;6.774;2022-09-13T13:26:57;2.20;;;2.00;;
12356;SDS011;6243;51.244;6.774;2022-09-13T13:29:23;3.00;;;2.30;;
12356;SDS011;6243;51.244;6.774;2022-09-13T13:32:08;2.50;;;2.30;;
12356;SDS011;6243;51.244;6.774;2022-09-13T13:34:38;3.13;;;2.40;;
12356;SDS011;6243;51.244;6.774;2022-09-13T13:37:29;2.53;;;2.00;;
12356;SDS011;6243;51.244;6.774;2022-09-13T13:40:10;2.83;;;2.30;;
12356;SDS011;6243;51.244;6.774;2022-09-13T13:42:43;3.53;;;2.20;;
12356;SDS011;6243;51.244;6.774;2022-09-13T13:45:16;3.40;;;2.60;;
12356;SDS011;6243;51.244;6.774;2022-09-13T13:47:55;3.37;;;2.50;;
12356;SDS011;6243;51.244;6.774;2022-09-13T13:50:35;4.07;;;2.50;;
12356;SDS011;6243;51.244;6.774;2022-09-13T13:53:39;2.90;;;2.33;;
12356;SDS011;6243;51.244;6.774;2022-09-13T13:56:14;4.00;;;2.70;;
12356;SDS011;6243;51.244;6.774;2022-09-13T13:58:44;3.67;;;2.30;;
12356;SDS011;6243;51.244;6.774;2022-09-13T14:01:16;2.67;;;2.47;;
12356;SDS011;6243;51.244;6.774;2022-09-13T14:03:49;4.23;;;2.40;;
12356;SDS011;6243;51.244;6.774;2022-09-13T14:06:25;4.97;;;2.77;;
12356;SDS011;6243;51.244;6.774;2022-09-13T14:09:02;4.13;;;2.60;;
12356;SDS011;6243;51.244;6.774;2022-09-13T14:11:38;4.07;;;2.87;;
12356;SDS011;6243;51.244;6.774;2022-09-13T14:14:17;3.83;;;2.57;;
12356;SDS011;6243;51.244;6.774;2022-09-13T14:16:59;2.73;;;2.53;;
12356;SDS011;6243;51.244;6.774;2022-09-13T14:19:46;3.30;;;2.83;;
12356;SDS011;6243;51.244;6.774;2022-09-13T14:22:15;2.60;;;2.40;;
12356;SDS011;6243;51.244;6.774;2022-09-13T14:24:44;3.57;;;2.47;;
12356;SDS011;6243;51.244;6.774;2022-09-13T14:27:12;3.47;;;2.93;;
12356;SDS011;6243;51.244;6.774;2022-09-13T14:29:43;3.20;;;2.83;;
12356;SDS011;6243;51.244;6.774;2022-09-13T14:32:10;3.87;;;2.63;;
12356;SDS011;6243;51.244;6.774;2022-09-13T14:34:48;3.77;;;2.37;;
12356;SDS011;6243;51.244;6.774;2022-09-13T14:37:17;4.77;;;2.40;;
12356;SDS011;6243;51.244;6.774;2022-09-13T14:39:53;3.17;;;2.30;;
12356;SDS011;6243;51.244;6.774;2022-09-13T14:42:22;3.77;;;3.20;;
12356;SDS011;6243;51.244;6.774;2022-09-13T14:44:48;3.63;;;2.60;;
12356;SDS011;6243;51.244;6.774;2022-09-13T14:47:15;2.63;;;2.30;;
12356;SDS011;6243;51.244;6.774;2022-09-13T14:49:49;3.77;;;3.13;;
12356;SDS011;6243;51.244;6.774;2022-09-13T14:52:19;2.37;;;1.90;;
12356;SDS011;6243;51.244;6.774;2022-09-13T14:54:51;2.70;;;2.37;;
12356;SDS011;6243;51.244;6.774;2022-09-13T14:57:22;3.07;;;2.30;;
12356;SDS011;6243;51.244;6.774;2022-09-13T14:59:51;3.47;;;2.10;;
12356;SDS011;6243;51.244;6.774;2022-09-13T15:02:21;4.73;;;3.10;;
12356;SDS011;6243;51.244;6.774;2022-09-13T15:04:49;4.03;;;2.37;;
12356;SDS011;6243;51.244;6.774;2022-09-13T15:07:18;2.50;;;2.10;;
12356;SDS011;6243;51.244;6.774;2022-09-13T15:09:46;4.50;;;2.80;;
12356;SDS011;6243;51.244;6.774;2022-09-13T15:12:20;3.70;;;2.20;;
12356;SDS011;6243;51.244;6.774;2022-09-13T15:14:48;3.40;;;2.50;;
12356;SDS011;6243;51.244;6.774;2022-09-13T15:17:14;2.30;;;2.10;;
12356;SDS011;6243;51.244;6.774;2022-09-13T15:19:40;2.40;;;2.30;;
12356;SDS011;6243;51.244;6.774;2022-09-13T15:22:19;2.57;;;2.07;;
12356;SDS011;6243;51.244;6.774;2022-09-13T15:24:47;4.20;;;2.40;;
12356;SDS011;6243;51.244;6.774;2022-09-13T15:27:16;3.03;;;2.73;;
12356;SDS011;6243;51.244;6.774;2022-09-13T15:29:52;2.73;;;2.20;;
12356;SDS011;6243;51.244;6.774;2022-09-13T15:32:21;3.53;;;2.57;;
12356;SDS011;6243;51.244;6.774;2022-09-13T15:34:48;4.77;;;2.80;;
12356;SDS011;6243;51.244;6.774;2022-09-13T15:37:14;3.43;;;2.37;;